sensor_id;sensor_type;location;lat;lon;timestamp;P1;durP1;ratioP1;P2;durP2;ratioP2
19796;SDS011;10058;57.654;12.044;2023-09-12T00:00:41;66.47;;;35.97;;
19796;SDS011;10058;57.654;12.044;2023-09-12T00:03:06;68.37;;;36.13;;
19796;SDS011;10058;57.654;12.044;2023-09-12T00:05:32;61.35;;;34.00;;
19796;SDS011;10058;57.654;12.044;2023-09-12T00:07:57;71.07;;;37.23;;
19796;SDS011;10058;57.654;12.044;2023-09-12T00:10:22;72.80;;;37.40;;
19796;SDS011;10058;57.654;12.044;2023-09-12T00:12:48;72.50;;;36.83;;
19796;SDS011;10058;57.654;12.044;2023-09-12T00:15:13;72.20;;;35.93;;
19796;SDS011;10058;57.654;12.044;2023-09-12T00:17:39;73.23;;;36.50;;
19796;SDS011;10058;57.654;12.044;2023-09-12T00:20:04;74.28;;;37.47;;
19796;SDS011;10058;57.654;12.044;2023-09-12T00:22:31;74.00;;;37.45;;
19796;SDS011;10058;57.654;12.044;2023-09-12T00:24:57;73.93;;;37.00;;
19796;SDS011;10058;57.654;12.044;2023-09-12T00:27:22;75.10;;;38.55;;
19796;SDS011;10058;57.654;12.044;2023-09-12T00:29:47;74.27;;;36.83;;
19796;SDS011;10058;57.654;12.044;2023-09-12T00:32:12;76.43;;;38.10;;
19796;SDS011;10058;57.654;12.044;2023-09-12T00:34:38;75.47;;;37.65;;
19796;SDS011;10058;57.654;12.044;2023-09-12T00:37:03;74.57;;;36.90;;
19796;SDS011;10058;57.654;12.044;2023-09-12T00:39:29;75.18;;;36.70;;
19796;SDS011;10058;57.654;12.044;2023-09-12T00:41:55;75.05;;;36.88;;
19796;SDS011;10058;57.654;12.044;2023-09-12T00:44:20;75.90;;;37.47;;
19796;SDS011;10058;57.654;12.044;2023-09-12T00:46:46;75.57;;;37.97;;
19796;SDS011;10058;57.654;12.044;2023-09-12T00:49:14;75.53;;;37.80;;
19796;SDS011;10058;57.654;12.044;2023-09-12T00:51:41;75.53;;;36.70;;
19796;SDS011;10058;57.654;12.044;2023-09-12T00:54:08;75.85;;;38.30;;
19796;SDS011;10058;57.654;12.044;2023-09-12T00:56:34;75.20;;;38.05;;
19796;SDS011;10058;57.654;12.044;2023-09-12T00:59:00;73.13;;;36.15;;
19796;SDS011;10058;57.654;12.044;2023-09-12T01:01:25;73.95;;;36.47;;
19796;SDS011;10058;57.654;12.044;2023-09-12T01:03:51;75.30;;;38.60;;
19796;SDS011;10058;57.654;12.044;2023-09-12T01:06:17;76.53;;;37.67;;
19796;SDS011;10058;57.654;12.044;2023-09-12T01:08:45;74.75;;;36.70;;
19796;SDS011;10058;57.654;12.044;2023-09-12T01:11:10;71.72;;;36.40;;
19796;SDS011;10058;57.654;12.044;2023-09-12T01:13:36;68.30;;;37.20;;
19796;SDS011;10058;57.654;12.044;2023-09-12T01:16:02;67.07;;;35.70;;
19796;SDS011;10058;57.654;12.044;2023-09-12T01:18:27;73.00;;;36.90;;
19796;SDS011;10058;57.654;12.044;2023-09-12T01:24:05;72.90;;;37.90;;
19796;SDS011;10058;57.654;12.044;2023-09-12T01:29:37;72.57;;;36.63;;
19796;SDS011;10058;57.654;12.044;2023-09-12T01:32:05;73.10;;;37.30;;
19796;SDS011;10058;57.654;12.044;2023-09-12T01:34:32;65.15;;;35.03;;
19796;SDS011;10058;57.654;12.044;2023-09-12T01:36:57;63.87;;;34.93;;
19796;SDS011;10058;57.654;12.044;2023-09-12T01:39:23;72.80;;;38.27;;
19796;SDS011;10058;57.654;12.044;2023-09-12T01:41:48;72.57;;;36.38;;
19796;SDS011;10058;57.654;12.044;2023-09-12T01:44:15;75.85;;;37.00;;
19796;SDS011;10058;57.654;12.044;2023-09-12T01:46:42;75.70;;;37.20;;
19796;SDS011;10058;57.654;12.044;2023-09-12T01:49:08;76.68;;;38.72;;
19796;SDS011;10058;57.654;12.044;2023-09-12T01:51:35;76.65;;;37.45;;
19796;SDS011;10058;57.654;12.044;2023-09-12T01:54:02;76.47;;;37.35;;
19796;SDS011;10058;57.654;12.044;2023-09-12T01:56:28;76.90;;;37.78;;
19796;SDS011;10058;57.654;12.044;2023-09-12T01:58:55;77.65;;;37.97;;
19796;SDS011;10058;57.654;12.044;2023-09-12T02:01:21;76.90;;;37.17;;
19796;SDS011;10058;57.654;12.044;2023-09-12T02:03:46;77.03;;;37.70;;
19796;SDS011;10058;57.654;12.044;2023-09-12T02:06:11;77.83;;;38.20;;
19796;SDS011;10058;57.654;12.044;2023-09-12T02:08:37;76.17;;;36.73;;
19796;SDS011;10058;57.654;12.044;2023-09-12T02:11:02;75.80;;;37.07;;
19796;SDS011;10058;57.654;12.044;2023-09-12T02:13:27;74.93;;;36.57;;
19796;SDS011;10058;57.654;12.044;2023-09-12T02:15:59;75.17;;;37.20;;
19796;SDS011;10058;57.654;12.044;2023-09-12T02:18:25;75.68;;;38.78;;
19796;SDS011;10058;57.654;12.044;2023-09-12T02:20:50;75.40;;;37.40;;
19796;SDS011;10058;57.654;12.044;2023-09-12T02:23:15;74.10;;;36.43;;
19796;SDS011;10058;57.654;12.044;2023-09-12T02:25:41;73.43;;;36.03;;
19796;SDS011;10058;57.654;12.044;2023-09-12T02:28:06;74.33;;;38.70;;
19796;SDS011;10058;57.654;12.044;2023-09-12T02:30:31;71.85;;;36.22;;
19796;SDS011;10058;57.654;12.044;2023-09-12T02:32:56;70.73;;;36.00;;
19796;SDS011;10058;57.654;12.044;2023-09-12T02:35:22;71.90;;;36.43;;
19796;SDS011;10058;57.654;12.044;2023-09-12T02:37:47;73.57;;;36.57;;
19796;SDS011;10058;57.654;12.044;2023-09-12T02:40:12;73.43;;;37.30;;
19796;SDS011;10058;57.654;12.044;2023-09-12T02:42:39;70.87;;;35.87;;
19796;SDS011;10058;57.654;12.044;2023-09-12T02:45:05;70.60;;;36.20;;
19796;SDS011;10058;57.654;12.044;2023-09-12T02:47:30;74.03;;;37.10;;
19796;SDS011;10058;57.654;12.044;2023-09-12T02:49:56;68.30;;;36.70;;
19796;SDS011;10058;57.654;12.044;2023-09-12T02:52:21;70.00;;;36.08;;
19796;SDS011;10058;57.654;12.044;2023-09-12T02:54:46;74.70;;;36.50;;
19796;SDS011;10058;57.654;12.044;2023-09-12T02:57:11;74.63;;;37.67;;
19796;SDS011;10058;57.654;12.044;2023-09-12T02:59:37;74.03;;;36.27;;
19796;SDS011;10058;57.654;12.044;2023-09-12T03:02:02;71.97;;;37.47;;
19796;SDS011;10058;57.654;12.044;2023-09-12T03:04:27;73.30;;;36.30;;
19796;SDS011;10058;57.654;12.044;2023-09-12T03:06:54;74.90;;;37.03;;
19796;SDS011;10058;57.654;12.044;2023-09-12T03:09:19;76.80;;;37.83;;
19796;SDS011;10058;57.654;12.044;2023-09-12T03:11:45;75.72;;;36.95;;
19796;SDS011;10058;57.654;12.044;2023-09-12T03:14:11;76.43;;;37.95;;
19796;SDS011;10058;57.654;12.044;2023-09-12T03:16:36;75.80;;;37.23;;
19796;SDS011;10058;57.654;12.044;2023-09-12T03:19:02;76.05;;;37.53;;
19796;SDS011;10058;57.654;12.044;2023-09-12T03:21:28;78.37;;;37.13;;
19796;SDS011;10058;57.654;12.044;2023-09-12T03:23:53;77.07;;;37.47;;
19796;SDS011;10058;57.654;12.044;2023-09-12T03:26:19;76.80;;;37.20;;
19796;SDS011;10058;57.654;12.044;2023-09-12T03:28:44;75.75;;;36.25;;
19796;SDS011;10058;57.654;12.044;2023-09-12T03:31:11;77.63;;;37.13;;
19796;SDS011;10058;57.654;12.044;2023-09-12T03:33:37;77.20;;;38.45;;
19796;SDS011;10058;57.654;12.044;2023-09-12T03:36:03;76.05;;;36.97;;
19796;SDS011;10058;57.654;12.044;2023-09-12T03:38:29;77.10;;;38.60;;
19796;SDS011;10058;57.654;12.044;2023-09-12T03:40:55;75.63;;;36.97;;
19796;SDS011;10058;57.654;12.044;2023-09-12T03:43:20;73.95;;;36.55;;
19796;SDS011;10058;57.654;12.044;2023-09-12T03:45:45;75.27;;;37.27;;
19796;SDS011;10058;57.654;12.044;2023-09-12T03:48:10;74.00;;;37.63;;
19796;SDS011;10058;57.654;12.044;2023-09-12T03:50:36;73.78;;;36.25;;
19796;SDS011;10058;57.654;12.044;2023-09-12T03:53:01;74.17;;;37.70;;
19796;SDS011;10058;57.654;12.044;2023-09-12T03:55:27;72.57;;;36.93;;
19796;SDS011;10058;57.654;12.044;2023-09-12T03:57:52;73.50;;;37.83;;
19796;SDS011;10058;57.654;12.044;2023-09-12T04:00:17;72.13;;;36.47;;
19796;SDS011;10058;57.654;12.044;2023-09-12T04:02:43;72.07;;;36.87;;
19796;SDS011;10058;57.654;12.044;2023-09-12T04:05:08;69.60;;;36.00;;
19796;SDS011;10058;57.654;12.044;2023-09-12T04:07:34;63.80;;;34.43;;
19796;SDS011;10058;57.654;12.044;2023-09-12T04:09:59;69.07;;;35.73;;
19796;SDS011;10058;57.654;12.044;2023-09-12T04:12:25;71.40;;;36.67;;
19796;SDS011;10058;57.654;12.044;2023-09-12T04:14:50;71.40;;;36.67;;
19796;SDS011;10058;57.654;12.044;2023-09-12T04:17:19;70.93;;;36.60;;
19796;SDS011;10058;57.654;12.044;2023-09-12T04:19:45;72.50;;;36.93;;
19796;SDS011;10058;57.654;12.044;2023-09-12T04:22:10;71.97;;;36.43;;
19796;SDS011;10058;57.654;12.044;2023-09-12T04:24:35;71.87;;;36.33;;
19796;SDS011;10058;57.654;12.044;2023-09-12T04:27:01;71.13;;;35.90;;
19796;SDS011;10058;57.654;12.044;2023-09-12T04:29:26;72.20;;;37.17;;
19796;SDS011;10058;57.654;12.044;2023-09-12T04:31:52;71.32;;;35.83;;
19796;SDS011;10058;57.654;12.044;2023-09-12T04:34:23;73.35;;;36.92;;
19796;SDS011;10058;57.654;12.044;2023-09-12T04:36:49;72.50;;;36.17;;
19796;SDS011;10058;57.654;12.044;2023-09-12T04:39:14;73.13;;;36.17;;
19796;SDS011;10058;57.654;12.044;2023-09-12T04:41:39;74.17;;;38.27;;
19796;SDS011;10058;57.654;12.044;2023-09-12T04:44:05;73.63;;;37.37;;
19796;SDS011;10058;57.654;12.044;2023-09-12T04:46:30;74.25;;;38.15;;
19796;SDS011;10058;57.654;12.044;2023-09-12T04:48:55;76.07;;;37.60;;
19796;SDS011;10058;57.654;12.044;2023-09-12T04:51:21;75.90;;;37.47;;
19796;SDS011;10058;57.654;12.044;2023-09-12T04:53:46;74.00;;;37.05;;
19796;SDS011;10058;57.654;12.044;2023-09-12T04:56:16;74.10;;;38.42;;
19796;SDS011;10058;57.654;12.044;2023-09-12T04:58:41;74.30;;;38.57;;
19796;SDS011;10058;57.654;12.044;2023-09-12T05:01:07;73.00;;;36.50;;
19796;SDS011;10058;57.654;12.044;2023-09-12T05:03:32;76.07;;;37.80;;
19796;SDS011;10058;57.654;12.044;2023-09-12T05:05:58;76.75;;;38.67;;
19796;SDS011;10058;57.654;12.044;2023-09-12T05:08:24;74.47;;;37.30;;
19796;SDS011;10058;57.654;12.044;2023-09-12T05:10:49;74.73;;;37.27;;
19796;SDS011;10058;57.654;12.044;2023-09-12T05:13:15;75.50;;;37.27;;
19796;SDS011;10058;57.654;12.044;2023-09-12T05:15:41;76.43;;;38.83;;
19796;SDS011;10058;57.654;12.044;2023-09-12T05:18:06;74.72;;;37.15;;
19796;SDS011;10058;57.654;12.044;2023-09-12T05:20:32;76.57;;;38.72;;
19796;SDS011;10058;57.654;12.044;2023-09-12T05:22:58;76.55;;;38.80;;
19796;SDS011;10058;57.654;12.044;2023-09-12T05:25:23;76.37;;;38.73;;
19796;SDS011;10058;57.654;12.044;2023-09-12T05:27:49;74.80;;;37.22;;
19796;SDS011;10058;57.654;12.044;2023-09-12T05:30:14;76.63;;;39.17;;
19796;SDS011;10058;57.654;12.044;2023-09-12T05:32:40;76.00;;;37.70;;
19796;SDS011;10058;57.654;12.044;2023-09-12T05:35:06;75.07;;;37.67;;
19796;SDS011;10058;57.654;12.044;2023-09-12T05:37:32;76.20;;;39.17;;
19796;SDS011;10058;57.654;12.044;2023-09-12T05:39:57;75.90;;;37.87;;
19796;SDS011;10058;57.654;12.044;2023-09-12T05:42:22;74.90;;;37.03;;
19796;SDS011;10058;57.654;12.044;2023-09-12T05:44:48;76.10;;;37.37;;
19796;SDS011;10058;57.654;12.044;2023-09-12T05:47:14;75.90;;;37.05;;
19796;SDS011;10058;57.654;12.044;2023-09-12T05:49:40;77.65;;;38.47;;
19796;SDS011;10058;57.654;12.044;2023-09-12T05:52:06;78.63;;;39.00;;
19796;SDS011;10058;57.654;12.044;2023-09-12T05:54:31;77.13;;;37.53;;
19796;SDS011;10058;57.654;12.044;2023-09-12T05:56:56;77.87;;;38.10;;
19796;SDS011;10058;57.654;12.044;2023-09-12T05:59:22;76.40;;;36.97;;
19796;SDS011;10058;57.654;12.044;2023-09-12T06:01:47;78.07;;;38.80;;
19796;SDS011;10058;57.654;12.044;2023-09-12T06:04:13;77.18;;;37.80;;
19796;SDS011;10058;57.654;12.044;2023-09-12T06:06:39;77.20;;;37.90;;
19796;SDS011;10058;57.654;12.044;2023-09-12T06:09:04;77.53;;;38.90;;
19796;SDS011;10058;57.654;12.044;2023-09-12T06:11:30;77.05;;;37.95;;
19796;SDS011;10058;57.654;12.044;2023-09-12T06:13:56;78.03;;;39.75;;
19796;SDS011;10058;57.654;12.044;2023-09-12T06:16:22;79.40;;;38.03;;
19796;SDS011;10058;57.654;12.044;2023-09-12T06:18:47;76.53;;;37.50;;
19796;SDS011;10058;57.654;12.044;2023-09-12T06:21:13;76.40;;;37.70;;
19796;SDS011;10058;57.654;12.044;2023-09-12T06:23:39;77.13;;;38.70;;
19796;SDS011;10058;57.654;12.044;2023-09-12T06:26:04;78.83;;;40.13;;
19796;SDS011;10058;57.654;12.044;2023-09-12T06:28:30;77.20;;;37.80;;
19796;SDS011;10058;57.654;12.044;2023-09-12T06:30:56;78.80;;;39.03;;
19796;SDS011;10058;57.654;12.044;2023-09-12T06:33:22;82.15;;;38.42;;
19796;SDS011;10058;57.654;12.044;2023-09-12T06:35:48;82.67;;;39.30;;
19796;SDS011;10058;57.654;12.044;2023-09-12T06:38:14;82.50;;;38.80;;
19796;SDS011;10058;57.654;12.044;2023-09-12T06:40:40;83.50;;;38.70;;
19796;SDS011;10058;57.654;12.044;2023-09-12T06:43:07;84.63;;;39.88;;
19796;SDS011;10058;57.654;12.044;2023-09-12T06:45:32;84.87;;;40.07;;
19796;SDS011;10058;57.654;12.044;2023-09-12T06:47:58;85.07;;;39.23;;
19796;SDS011;10058;57.654;12.044;2023-09-12T06:50:23;83.60;;;37.90;;
19796;SDS011;10058;57.654;12.044;2023-09-12T06:52:48;85.23;;;38.67;;
19796;SDS011;10058;57.654;12.044;2023-09-12T06:55:13;83.27;;;39.13;;
19796;SDS011;10058;57.654;12.044;2023-09-12T06:57:39;84.93;;;40.03;;
19796;SDS011;10058;57.654;12.044;2023-09-12T07:00:04;87.73;;;40.97;;
19796;SDS011;10058;57.654;12.044;2023-09-12T07:02:33;86.35;;;39.88;;
19796;SDS011;10058;57.654;12.044;2023-09-12T07:04:58;86.87;;;39.77;;
19796;SDS011;10058;57.654;12.044;2023-09-12T07:07:24;85.90;;;38.40;;
19796;SDS011;10058;57.654;12.044;2023-09-12T07:09:49;86.83;;;40.00;;
19796;SDS011;10058;57.654;12.044;2023-09-12T07:12:14;87.27;;;39.90;;
19796;SDS011;10058;57.654;12.044;2023-09-12T07:14:40;86.83;;;39.10;;
19796;SDS011;10058;57.654;12.044;2023-09-12T07:17:05;85.60;;;38.73;;
19796;SDS011;10058;57.654;12.044;2023-09-12T07:19:31;85.23;;;39.23;;
19796;SDS011;10058;57.654;12.044;2023-09-12T07:21:56;84.20;;;39.20;;
19796;SDS011;10058;57.654;12.044;2023-09-12T07:24:24;79.63;;;37.27;;
19796;SDS011;10058;57.654;12.044;2023-09-12T07:26:51;83.80;;;38.30;;
19796;SDS011;10058;57.654;12.044;2023-09-12T07:29:16;83.30;;;39.37;;
19796;SDS011;10058;57.654;12.044;2023-09-12T07:31:42;88.23;;;40.33;;
19796;SDS011;10058;57.654;12.044;2023-09-12T07:34:07;89.07;;;40.73;;
19796;SDS011;10058;57.654;12.044;2023-09-12T07:36:33;86.68;;;40.00;;
19796;SDS011;10058;57.654;12.044;2023-09-12T07:38:58;85.30;;;39.15;;
19796;SDS011;10058;57.654;12.044;2023-09-12T07:41:23;84.10;;;38.87;;
19796;SDS011;10058;57.654;12.044;2023-09-12T07:43:49;84.17;;;38.80;;
19796;SDS011;10058;57.654;12.044;2023-09-12T07:46:14;84.65;;;38.45;;
19796;SDS011;10058;57.654;12.044;2023-09-12T07:48:39;84.90;;;38.50;;
19796;SDS011;10058;57.654;12.044;2023-09-12T07:51:14;89.37;;;40.60;;
19796;SDS011;10058;57.654;12.044;2023-09-12T07:53:42;84.95;;;38.45;;
19796;SDS011;10058;57.654;12.044;2023-09-12T07:56:08;84.03;;;38.75;;
19796;SDS011;10058;57.654;12.044;2023-09-12T07:58:37;84.00;;;38.58;;
19796;SDS011;10058;57.654;12.044;2023-09-12T08:01:09;84.60;;;38.87;;
19796;SDS011;10058;57.654;12.044;2023-09-12T08:03:35;84.70;;;39.72;;
19796;SDS011;10058;57.654;12.044;2023-09-12T08:06:01;83.93;;;38.90;;
19796;SDS011;10058;57.654;12.044;2023-09-12T08:08:27;81.33;;;37.57;;
19796;SDS011;10058;57.654;12.044;2023-09-12T08:10:53;86.55;;;39.22;;
19796;SDS011;10058;57.654;12.044;2023-09-12T08:13:19;89.60;;;40.33;;
19796;SDS011;10058;57.654;12.044;2023-09-12T08:15:44;86.03;;;39.27;;
19796;SDS011;10058;57.654;12.044;2023-09-12T08:18:10;89.30;;;40.63;;
19796;SDS011;10058;57.654;12.044;2023-09-12T08:20:35;85.70;;;39.53;;
19796;SDS011;10058;57.654;12.044;2023-09-12T08:23:00;86.83;;;39.70;;
19796;SDS011;10058;57.654;12.044;2023-09-12T08:25:25;84.90;;;38.60;;
19796;SDS011;10058;57.654;12.044;2023-09-12T08:27:52;85.85;;;39.15;;
19796;SDS011;10058;57.654;12.044;2023-09-12T08:30:17;88.40;;;39.78;;
19796;SDS011;10058;57.654;12.044;2023-09-12T08:32:42;84.80;;;39.20;;
19796;SDS011;10058;57.654;12.044;2023-09-12T08:35:11;85.45;;;39.65;;
19796;SDS011;10058;57.654;12.044;2023-09-12T08:37:40;83.88;;;38.63;;
19796;SDS011;10058;57.654;12.044;2023-09-12T08:40:09;83.32;;;37.97;;
19796;SDS011;10058;57.654;12.044;2023-09-12T08:42:42;84.35;;;39.15;;
19796;SDS011;10058;57.654;12.044;2023-09-12T08:45:13;82.85;;;37.95;;
19796;SDS011;10058;57.654;12.044;2023-09-12T08:47:49;83.45;;;38.65;;
19796;SDS011;10058;57.654;12.044;2023-09-12T08:50:16;78.00;;;38.33;;
19796;SDS011;10058;57.654;12.044;2023-09-12T08:52:44;81.00;;;37.83;;
19796;SDS011;10058;57.654;12.044;2023-09-12T08:55:11;83.38;;;39.80;;
19796;SDS011;10058;57.654;12.044;2023-09-12T08:57:43;83.30;;;38.83;;
19796;SDS011;10058;57.654;12.044;2023-09-12T09:00:09;81.78;;;37.60;;
19796;SDS011;10058;57.654;12.044;2023-09-12T09:02:38;85.07;;;38.63;;
19796;SDS011;10058;57.654;12.044;2023-09-12T09:05:08;84.07;;;38.55;;
19796;SDS011;10058;57.654;12.044;2023-09-12T09:07:40;85.30;;;38.90;;
19796;SDS011;10058;57.654;12.044;2023-09-12T09:10:09;86.07;;;39.60;;
19796;SDS011;10058;57.654;12.044;2023-09-12T09:12:40;84.97;;;38.63;;
19796;SDS011;10058;57.654;12.044;2023-09-12T09:15:25;85.03;;;38.78;;
19796;SDS011;10058;57.654;12.044;2023-09-12T09:17:54;85.05;;;39.10;;
19796;SDS011;10058;57.654;12.044;2023-09-12T09:20:21;86.15;;;39.58;;
19796;SDS011;10058;57.654;12.044;2023-09-12T09:23:01;85.30;;;39.13;;
19796;SDS011;10058;57.654;12.044;2023-09-12T09:25:32;84.28;;;38.65;;
19796;SDS011;10058;57.654;12.044;2023-09-12T09:28:01;78.82;;;38.00;;
19796;SDS011;10058;57.654;12.044;2023-09-12T09:30:39;79.80;;;38.00;;
19796;SDS011;10058;57.654;12.044;2023-09-12T09:33:09;75.28;;;38.05;;
19796;SDS011;10058;57.654;12.044;2023-09-12T09:35:35;81.20;;;38.78;;
19796;SDS011;10058;57.654;12.044;2023-09-12T09:38:01;78.07;;;37.70;;
19796;SDS011;10058;57.654;12.044;2023-09-12T09:40:28;83.32;;;38.38;;
19796;SDS011;10058;57.654;12.044;2023-09-12T09:42:54;85.33;;;39.80;;
19796;SDS011;10058;57.654;12.044;2023-09-12T09:45:21;84.72;;;38.33;;
19796;SDS011;10058;57.654;12.044;2023-09-12T09:47:46;84.03;;;39.03;;
19796;SDS011;10058;57.654;12.044;2023-09-12T09:50:14;83.72;;;39.65;;
19796;SDS011;10058;57.654;12.044;2023-09-12T09:52:39;74.47;;;36.83;;
19796;SDS011;10058;57.654;12.044;2023-09-12T09:55:06;83.00;;;38.73;;
19796;SDS011;10058;57.654;12.044;2023-09-12T09:57:36;85.35;;;38.28;;
19796;SDS011;10058;57.654;12.044;2023-09-12T10:00:02;86.03;;;39.63;;
19796;SDS011;10058;57.654;12.044;2023-09-12T10:02:33;82.80;;;38.35;;
19796;SDS011;10058;57.654;12.044;2023-09-12T10:05:01;74.47;;;37.20;;
19796;SDS011;10058;57.654;12.044;2023-09-12T10:07:30;79.43;;;37.65;;
19796;SDS011;10058;57.654;12.044;2023-09-12T10:09:58;83.53;;;39.47;;
19796;SDS011;10058;57.654;12.044;2023-09-12T10:12:27;85.00;;;38.88;;
19796;SDS011;10058;57.654;12.044;2023-09-12T10:14:56;84.63;;;38.15;;
19796;SDS011;10058;57.654;12.044;2023-09-12T10:17:25;86.70;;;39.60;;
19796;SDS011;10058;57.654;12.044;2023-09-12T10:19:56;85.25;;;39.42;;
19796;SDS011;10058;57.654;12.044;2023-09-12T10:22:32;80.50;;;38.10;;
19796;SDS011;10058;57.654;12.044;2023-09-12T10:25:00;80.97;;;38.53;;
19796;SDS011;10058;57.654;12.044;2023-09-12T10:27:26;79.10;;;37.37;;
19796;SDS011;10058;57.654;12.044;2023-09-12T10:29:52;78.80;;;38.05;;
19796;SDS011;10058;57.654;12.044;2023-09-12T10:32:18;78.03;;;37.42;;
19796;SDS011;10058;57.654;12.044;2023-09-12T10:34:45;67.93;;;35.42;;
19796;SDS011;10058;57.654;12.044;2023-09-12T10:37:12;78.40;;;38.33;;
19796;SDS011;10058;57.654;12.044;2023-09-12T10:39:40;74.60;;;37.33;;
19796;SDS011;10058;57.654;12.044;2023-09-12T10:42:10;76.78;;;37.58;;
19796;SDS011;10058;57.654;12.044;2023-09-12T10:44:37;77.05;;;37.13;;
19796;SDS011;10058;57.654;12.044;2023-09-12T10:47:03;80.33;;;38.57;;
19796;SDS011;10058;57.654;12.044;2023-09-12T10:49:29;79.63;;;37.67;;
19796;SDS011;10058;57.654;12.044;2023-09-12T10:51:55;82.57;;;39.70;;
19796;SDS011;10058;57.654;12.044;2023-09-12T10:54:25;80.20;;;37.73;;
19796;SDS011;10058;57.654;12.044;2023-09-12T10:57:07;80.82;;;38.17;;
19796;SDS011;10058;57.654;12.044;2023-09-12T11:00:08;81.53;;;38.05;;
19796;SDS011;10058;57.654;12.044;2023-09-12T11:02:33;104.95;;;40.80;;
19796;SDS011;10058;57.654;12.044;2023-09-12T11:05:03;119.93;;;42.85;;
19796;SDS011;10058;57.654;12.044;2023-09-12T11:07:31;165.57;;;45.00;;
19796;SDS011;10058;57.654;12.044;2023-09-12T11:12:49;164.40;;;46.58;;
19796;SDS011;10058;57.654;12.044;2023-09-12T11:15:16;174.27;;;47.08;;
19796;SDS011;10058;57.654;12.044;2023-09-12T11:17:46;179.95;;;47.17;;
19796;SDS011;10058;57.654;12.044;2023-09-12T11:20:24;178.55;;;47.50;;
19796;SDS011;10058;57.654;12.044;2023-09-12T11:22:49;174.68;;;48.20;;
19796;SDS011;10058;57.654;12.044;2023-09-12T11:25:25;166.98;;;46.20;;
19796;SDS011;10058;57.654;12.044;2023-09-12T11:30:23;179.77;;;48.07;;
19796;SDS011;10058;57.654;12.044;2023-09-12T11:32:59;179.02;;;46.80;;
19796;SDS011;10058;57.654;12.044;2023-09-12T11:35:29;177.45;;;47.10;;
19796;SDS011;10058;57.654;12.044;2023-09-12T11:38:00;181.95;;;47.90;;
19796;SDS011;10058;57.654;12.044;2023-09-12T11:42:57;182.40;;;48.80;;
19796;SDS011;10058;57.654;12.044;2023-09-12T11:45:22;182.07;;;48.30;;
19796;SDS011;10058;57.654;12.044;2023-09-12T11:47:48;183.57;;;47.47;;
19796;SDS011;10058;57.654;12.044;2023-09-12T11:50:32;185.50;;;47.67;;
19796;SDS011;10058;57.654;12.044;2023-09-12T11:53:08;185.40;;;47.92;;
19796;SDS011;10058;57.654;12.044;2023-09-12T11:55:35;176.13;;;46.05;;
19796;SDS011;10058;57.654;12.044;2023-09-12T11:58:03;178.30;;;46.20;;
19796;SDS011;10058;57.654;12.044;2023-09-12T12:00:29;177.13;;;46.42;;
19796;SDS011;10058;57.654;12.044;2023-09-12T12:02:54;177.40;;;46.13;;
19796;SDS011;10058;57.654;12.044;2023-09-12T12:05:20;180.93;;;47.37;;
19796;SDS011;10058;57.654;12.044;2023-09-12T12:07:47;177.18;;;47.55;;
19796;SDS011;10058;57.654;12.044;2023-09-12T12:10:14;183.25;;;47.95;;
19796;SDS011;10058;57.654;12.044;2023-09-12T12:12:42;186.20;;;47.72;;
19796;SDS011;10058;57.654;12.044;2023-09-12T12:15:12;190.27;;;48.93;;
19796;SDS011;10058;57.654;12.044;2023-09-12T12:17:39;188.55;;;47.97;;
19796;SDS011;10058;57.654;12.044;2023-09-12T12:20:06;184.13;;;46.97;;
19796;SDS011;10058;57.654;12.044;2023-09-12T12:22:35;185.80;;;47.65;;
19796;SDS011;10058;57.654;12.044;2023-09-12T12:25:08;178.30;;;45.95;;
19796;SDS011;10058;57.654;12.044;2023-09-12T12:27:39;185.77;;;47.47;;
19796;SDS011;10058;57.654;12.044;2023-09-12T12:30:06;187.75;;;48.70;;
19796;SDS011;10058;57.654;12.044;2023-09-12T12:32:36;185.85;;;47.33;;
19796;SDS011;10058;57.654;12.044;2023-09-12T12:35:05;187.77;;;48.50;;
19796;SDS011;10058;57.654;12.044;2023-09-12T12:37:32;160.93;;;42.22;;
19796;SDS011;10058;57.654;12.044;2023-09-12T12:39:58;187.70;;;48.72;;
19796;SDS011;10058;57.654;12.044;2023-09-12T12:42:24;184.35;;;46.63;;
19796;SDS011;10058;57.654;12.044;2023-09-12T12:44:54;180.07;;;47.03;;
19796;SDS011;10058;57.654;12.044;2023-09-12T12:47:20;171.32;;;41.33;;
19796;SDS011;10058;57.654;12.044;2023-09-12T12:49:46;136.95;;;33.28;;
19796;SDS011;10058;57.654;12.044;2023-09-12T12:52:16;158.98;;;45.03;;
19796;SDS011;10058;57.654;12.044;2023-09-12T12:54:42;306.20;;;86.13;;
19796;SDS011;10058;57.654;12.044;2023-09-12T12:57:08;282.08;;;55.55;;
19796;SDS011;10058;57.654;12.044;2023-09-12T12:59:37;305.27;;;72.57;;
19796;SDS011;10058;57.654;12.044;2023-09-12T13:02:03;32.33;;;17.83;;
19796;SDS011;10058;57.654;12.044;2023-09-12T13:04:34;305.97;;;75.63;;
19796;SDS011;10058;57.654;12.044;2023-09-12T13:07:01;306.80;;;72.15;;
19796;SDS011;10058;57.654;12.044;2023-09-12T13:09:26;303.87;;;69.53;;
19796;SDS011;10058;57.654;12.044;2023-09-12T13:11:52;337.33;;;152.40;;
19796;SDS011;10058;57.654;12.044;2023-09-12T13:14:17;327.00;;;131.20;;
19796;SDS011;10058;57.654;12.044;2023-09-12T13:16:44;331.75;;;145.60;;
19796;SDS011;10058;57.654;12.044;2023-09-12T13:19:09;326.05;;;140.75;;
19796;SDS011;10058;57.654;12.044;2023-09-12T13:21:38;400.30;;;193.03;;
19796;SDS011;10058;57.654;12.044;2023-09-12T13:24:03;316.35;;;133.65;;
19796;SDS011;10058;57.654;12.044;2023-09-12T13:26:29;305.30;;;98.57;;
19796;SDS011;10058;57.654;12.044;2023-09-12T13:28:54;300.27;;;80.43;;
19796;SDS011;10058;57.654;12.044;2023-09-12T13:31:19;247.60;;;49.60;;
19796;SDS011;10058;57.654;12.044;2023-09-12T13:33:45;253.15;;;51.45;;
19796;SDS011;10058;57.654;12.044;2023-09-12T13:36:10;275.80;;;57.03;;
19796;SDS011;10058;57.654;12.044;2023-09-12T13:38:35;283.27;;;59.40;;
19796;SDS011;10058;57.654;12.044;2023-09-12T13:41:01;280.00;;;58.55;;
19796;SDS011;10058;57.654;12.044;2023-09-12T13:43:26;277.17;;;57.03;;
19796;SDS011;10058;57.654;12.044;2023-09-12T13:45:53;279.80;;;57.33;;
19796;SDS011;10058;57.654;12.044;2023-09-12T13:48:18;279.07;;;57.13;;
19796;SDS011;10058;57.654;12.044;2023-09-12T13:50:43;281.30;;;59.27;;
19796;SDS011;10058;57.654;12.044;2023-09-12T13:53:09;279.87;;;58.60;;
19796;SDS011;10058;57.654;12.044;2023-09-12T13:55:35;287.95;;;70.47;;
19796;SDS011;10058;57.654;12.044;2023-09-12T13:58:01;284.37;;;65.40;;
19796;SDS011;10058;57.654;12.044;2023-09-12T14:00:28;280.10;;;62.58;;
19796;SDS011;10058;57.654;12.044;2023-09-12T14:02:54;290.83;;;68.03;;
19796;SDS011;10058;57.654;12.044;2023-09-12T14:05:19;278.90;;;61.30;;
19796;SDS011;10058;57.654;12.044;2023-09-12T14:07:45;281.48;;;60.83;;
19796;SDS011;10058;57.654;12.044;2023-09-12T14:10:10;282.43;;;60.90;;
19796;SDS011;10058;57.654;12.044;2023-09-12T14:12:35;278.97;;;61.10;;
19796;SDS011;10058;57.654;12.044;2023-09-12T14:15:01;281.80;;;68.93;;
19796;SDS011;10058;57.654;12.044;2023-09-12T14:17:27;278.80;;;68.22;;